Main page
METAR-TAF:

METAR-TAF

Airports :

Penn Valley Airport

Selinsgrove, Pennsylvania, United States

latitude: 40-49-09N, longitude: 076-51-58W, elevation: 449 ft

Current weather observation

The report was made 39 minutes ago, at 04:53 UTC
Calm wind
Temperature 55°F
Humidity 72%
Pressure 29.81 in. Hg
Visibility: 10 miles
Overcast at a height of 10000 ft

METAR: KSEG 210453Z AUTO 00000KT 10SM OVC100 13/08 A2981 RMK AO2 SLP091 T01330083 402390133

Time: 01:32 (05:32 UTC)


TAF: missing

Weather observations and forecasts of more than 4000 airports (METAR and TAF reports).

The available stations are represented by yellow and red dots on the map.

Hover mouse over dot to see the name of the station.

Then click to see weather observations and forecasts.

To change the map : click on the green buttons with a black cross to zoom in, on the green button with a dash to zoom out, or on the green arrows for adjacent maps.


METAR-TAF: